createdAt,value
2018-03-18T00:01:37.912Z,2.20
2018-03-18T00:04:06.200Z,2.20
2018-03-18T00:06:34.522Z,2.30
2018-03-18T00:09:02.784Z,2.40
2018-03-18T00:11:31.056Z,2.30
2018-03-18T00:13:59.410Z,2.30
2018-03-18T00:16:27.725Z,2.10
2018-03-18T00:18:55.978Z,2.00
2018-03-18T00:21:24.257Z,2.10
2018-03-18T00:23:52.511Z,2.10
2018-03-18T00:26:20.925Z,2.20
2018-03-18T00:28:50.064Z,2.20
2018-03-18T00:31:19.102Z,2.20
2018-03-18T00:33:47.364Z,2.10
2018-03-18T00:36:15.646Z,2.20
2018-03-18T00:38:43.936Z,2.20
2018-03-18T00:41:12.263Z,2.20
2018-03-18T00:43:41.320Z,2.10
2018-03-18T00:46:09.653Z,2.10
2018-03-18T00:48:37.970Z,2.20
2018-03-18T00:51:06.209Z,2.10
2018-03-18T00:53:34.528Z,2.10
2018-03-18T00:56:02.774Z,2.20
2018-03-18T00:58:31.078Z,2.20
2018-03-18T01:00:59.371Z,2.10
2018-03-18T01:03:27.632Z,2.20
2018-03-18T01:05:56.013Z,2.10
2018-03-18T01:08:24.288Z,2.20
2018-03-18T01:10:52.769Z,2.20
2018-03-18T01:13:21.055Z,2.10
2018-03-18T01:15:49.346Z,2.10
2018-03-18T01:18:17.610Z,2.10
2018-03-18T01:20:45.876Z,2.10
2018-03-18T01:23:14.157Z,2.10
2018-03-18T01:25:42.441Z,2.10
2018-03-18T01:28:10.812Z,2.10
2018-03-18T01:30:40.582Z,2.10
2018-03-18T01:33:08.930Z,2.10
2018-03-18T01:35:37.964Z,2.10
2018-03-18T01:38:06.260Z,2.10
2018-03-18T01:40:34.574Z,2.00
2018-03-18T01:43:03.648Z,2.00
2018-03-18T01:45:31.921Z,2.00
2018-03-18T01:48:00.290Z,2.00
2018-03-18T01:50:28.543Z,1.90
2018-03-18T01:53:08.835Z,2.00
2018-03-18T01:55:37.100Z,2.00
2018-03-18T01:58:05.382Z,2.00
2018-03-18T02:00:33.656Z,1.80
2018-03-18T02:03:01.938Z,1.60
2018-03-18T02:05:30.208Z,1.70
2018-03-18T02:07:58.480Z,1.80
2018-03-18T02:10:26.749Z,1.80
2018-03-18T02:12:55.026Z,1.70
2018-03-18T02:15:23.310Z,1.70
2018-03-18T02:17:51.585Z,1.70
2018-03-18T02:20:19.869Z,1.70
2018-03-18T02:22:48.181Z,1.70
2018-03-18T02:25:17.281Z,1.80
2018-03-18T02:27:46.306Z,1.90
2018-03-18T02:30:14.672Z,1.90
2018-03-18T02:32:42.987Z,1.90
2018-03-18T02:35:11.243Z,1.90
2018-03-18T02:37:39.523Z,1.80
2018-03-18T02:40:07.786Z,1.80
2018-03-18T02:42:36.057Z,1.90
2018-03-18T02:45:04.404Z,2.00
2018-03-18T02:47:33.563Z,1.80
2018-03-18T02:50:01.832Z,1.80
2018-03-18T02:52:30.117Z,1.80
2018-03-18T02:54:58.367Z,1.80
2018-03-18T02:57:26.684Z,1.80
2018-03-18T02:59:54.947Z,1.80
2018-03-18T03:02:23.247Z,1.90
2018-03-18T03:04:51.505Z,1.70
2018-03-18T03:07:19.777Z,1.80
2018-03-18T03:09:48.052Z,1.90
2018-03-18T03:12:16.331Z,1.80
2018-03-18T03:14:44.642Z,1.80
2018-03-18T03:17:13.676Z,1.70
2018-03-18T03:19:41.944Z,1.60
2018-03-18T03:22:10.255Z,1.60
2018-03-18T03:24:38.517Z,1.70
2018-03-18T03:27:06.774Z,1.80
2018-03-18T03:29:35.048Z,1.90
2018-03-18T03:32:03.304Z,1.90
2018-03-18T03:34:32.351Z,1.80
2018-03-18T03:37:00.604Z,1.80
2018-03-18T03:39:28.867Z,1.80
2018-03-18T03:41:57.155Z,1.80
2018-03-18T03:44:25.426Z,1.80
2018-03-18T03:46:53.704Z,1.70
2018-03-18T03:49:21.947Z,1.80
2018-03-18T03:51:50.984Z,1.90
2018-03-18T03:54:19.291Z,1.80
2018-03-18T03:56:47.528Z,1.80
2018-03-18T03:59:15.791Z,1.70
2018-03-18T04:01:44.085Z,1.60
2018-03-18T04:04:12.341Z,1.60
2018-03-18T04:06:40.636Z,1.50
2018-03-18T04:09:08.898Z,1.60
2018-03-18T04:11:37.206Z,1.70
2018-03-18T04:14:05.496Z,1.90
2018-03-18T04:16:33.863Z,1.70
2018-03-18T04:19:02.159Z,1.70
2018-03-18T04:21:30.416Z,1.70
2018-03-18T04:23:58.683Z,1.80
2018-03-18T04:26:26.949Z,1.80
2018-03-18T04:28:55.215Z,1.90
2018-03-18T04:31:23.476Z,1.90
2018-03-18T04:33:51.797Z,1.90
2018-03-18T04:36:20.018Z,1.90
2018-03-18T04:38:49.069Z,1.90
2018-03-18T04:41:17.343Z,1.90
2018-03-18T04:43:45.602Z,2.00
2018-03-18T04:46:13.869Z,2.10
2018-03-18T04:48:42.140Z,2.10
2018-03-18T04:51:10.461Z,2.10
2018-03-18T04:53:38.729Z,2.10
2018-03-18T04:56:07.039Z,2.10
2018-03-18T04:58:35.297Z,2.10
2018-03-18T05:01:04.333Z,2.00
2018-03-18T05:03:34.170Z,1.90
2018-03-18T05:06:02.428Z,1.80
2018-03-18T05:08:30.741Z,1.80
2018-03-18T05:10:58.965Z,1.80
2018-03-18T05:13:27.239Z,1.80
2018-03-18T05:15:55.482Z,1.80
2018-03-18T05:18:23.752Z,1.80
2018-03-18T05:20:52.005Z,1.90
2018-03-18T05:23:20.258Z,1.90
2018-03-18T05:25:48.540Z,1.90
2018-03-18T05:28:16.812Z,2.00
2018-03-18T05:30:45.065Z,2.00
2018-03-18T05:33:13.330Z,2.00
2018-03-18T05:35:42.357Z,2.00
2018-03-18T05:38:10.621Z,2.00
2018-03-18T05:40:38.889Z,1.90
2018-03-18T05:43:07.135Z,1.80
2018-03-18T05:45:35.413Z,1.90
2018-03-18T05:48:03.676Z,1.70
2018-03-18T05:50:32.772Z,1.90
2018-03-18T05:53:01.100Z,2.00
2018-03-18T05:55:29.335Z,2.00
2018-03-18T05:57:58.409Z,2.10
2018-03-18T06:00:26.692Z,2.00
2018-03-18T06:02:54.977Z,2.00
2018-03-18T06:05:23.240Z,2.10
2018-03-18T06:07:51.495Z,2.10
2018-03-18T06:10:19.752Z,2.20
2018-03-18T06:12:48.020Z,2.20
2018-03-18T06:15:16.294Z,2.20
2018-03-18T06:17:44.572Z,2.10
2018-03-18T06:20:12.852Z,2.10
2018-03-18T06:22:41.101Z,2.00
2018-03-18T06:25:10.144Z,2.10
2018-03-18T06:27:38.426Z,2.00
2018-03-18T06:30:06.677Z,2.00
2018-03-18T06:32:34.951Z,2.10
2018-03-18T06:35:03.192Z,2.10
2018-03-18T06:37:32.259Z,2.10
2018-03-18T06:40:00.506Z,2.00
2018-03-18T06:42:28.810Z,2.10
2018-03-18T06:44:57.048Z,2.00
2018-03-18T06:47:25.312Z,1.90
2018-03-18T06:49:53.663Z,2.00
2018-03-18T06:52:21.922Z,1.90
2018-03-18T06:54:50.206Z,2.10
2018-03-18T06:57:18.484Z,2.20
2018-03-18T06:59:46.752Z,2.20
2018-03-18T07:02:15.025Z,2.20
2018-03-18T07:04:43.311Z,1.80
2018-03-18T07:07:11.585Z,1.90
2018-03-18T07:09:39.860Z,2.00
2018-03-18T07:12:08.148Z,2.00
2018-03-18T07:14:36.413Z,2.10
2018-03-18T07:17:04.687Z,2.10
2018-03-18T07:19:32.967Z,1.90
2018-03-18T07:22:01.247Z,2.20
2018-03-18T07:24:29.516Z,2.20
2018-03-18T07:26:57.885Z,2.20
2018-03-18T07:29:26.136Z,2.20
2018-03-18T07:31:54.415Z,2.20
2018-03-18T07:34:22.662Z,2.10
2018-03-18T07:36:50.929Z,2.00
2018-03-18T07:39:19.983Z,2.10
2018-03-18T07:41:48.239Z,2.10
2018-03-18T07:44:16.524Z,2.10
2018-03-18T07:46:44.812Z,2.00
2018-03-18T07:49:13.074Z,2.10
2018-03-18T07:51:41.346Z,2.20
2018-03-18T07:54:09.629Z,2.20
2018-03-18T07:56:37.932Z,2.20
2018-03-18T07:59:06.210Z,2.30
2018-03-18T08:01:35.298Z,2.20
2018-03-18T08:04:03.606Z,2.30
2018-03-18T08:06:32.608Z,2.20
2018-03-18T08:09:00.883Z,2.20
2018-03-18T08:11:29.154Z,2.10
2018-03-18T08:13:58.217Z,2.00
2018-03-18T08:16:26.469Z,2.00
2018-03-18T08:18:54.747Z,2.10
2018-03-18T08:21:23.067Z,1.80
2018-03-18T08:23:51.309Z,2.00
2018-03-18T08:26:19.699Z,2.00
2018-03-18T08:28:47.890Z,2.10
2018-03-18T08:31:16.207Z,2.20
2018-03-18T08:33:44.474Z,2.10
2018-03-18T08:36:12.750Z,2.20
2018-03-18T08:38:41.020Z,2.10
2018-03-18T08:41:10.043Z,2.10
2018-03-18T08:43:38.343Z,2.10
2018-03-18T08:46:06.746Z,2.30
2018-03-18T08:48:34.992Z,2.40
2018-03-18T08:51:03.272Z,2.30
2018-03-18T08:53:31.547Z,2.30
2018-03-18T08:55:59.843Z,2.40
2018-03-18T08:58:28.096Z,2.40
2018-03-18T09:00:57.192Z,2.50
2018-03-18T09:03:25.445Z,2.40
2018-03-18T09:05:53.719Z,2.50
2018-03-18T09:08:21.977Z,2.50
2018-03-18T09:10:50.253Z,2.40
2018-03-18T09:13:18.506Z,2.50
2018-03-18T09:15:46.787Z,2.50
2018-03-18T09:18:15.825Z,2.40
2018-03-18T09:20:44.096Z,2.40
2018-03-18T09:23:12.375Z,2.20
2018-03-18T09:25:40.631Z,2.30
2018-03-18T09:28:08.923Z,2.40
2018-03-18T09:30:37.164Z,2.50
2018-03-18T09:33:06.200Z,2.60
2018-03-18T09:35:34.509Z,2.60
2018-03-18T09:38:02.762Z,2.60
2018-03-18T09:40:31.158Z,2.70
2018-03-18T09:42:59.468Z,2.80
2018-03-18T09:45:28.802Z,3.00
2018-03-18T09:47:57.062Z,3.00
2018-03-18T09:50:25.356Z,3.00
2018-03-18T09:52:53.623Z,3.00
2018-03-18T09:55:21.909Z,3.20
2018-03-18T09:57:50.217Z,3.30
2018-03-18T10:00:18.586Z,3.20
2018-03-18T10:02:46.833Z,3.20
2018-03-18T10:05:15.109Z,3.30
2018-03-18T10:07:43.391Z,3.30
2018-03-18T10:10:11.653Z,3.30
2018-03-18T10:12:39.933Z,3.20
2018-03-18T10:15:08.209Z,3.40
2018-03-18T10:17:36.528Z,3.50
2018-03-18T10:20:04.802Z,3.60
2018-03-18T10:22:33.144Z,3.50
2018-03-18T10:25:01.452Z,3.50
2018-03-18T10:27:29.743Z,3.50
2018-03-18T10:29:58.008Z,3.40
2018-03-18T10:32:26.268Z,3.30
2018-03-18T10:34:54.567Z,3.20
2018-03-18T10:37:22.850Z,3.20
2018-03-18T10:39:51.108Z,3.30
2018-03-18T10:42:19.385Z,3.30
2018-03-18T10:44:47.659Z,3.40
2018-03-18T10:47:16.007Z,3.50
2018-03-18T10:49:44.261Z,3.50
2018-03-18T10:52:13.294Z,3.70
2018-03-18T10:54:41.558Z,3.70
2018-03-18T10:57:09.823Z,3.80
2018-03-18T10:59:38.104Z,3.80
2018-03-18T11:02:21.247Z,3.70
2018-03-18T11:04:49.517Z,3.30
2018-03-18T11:07:17.804Z,3.40
2018-03-18T11:09:46.066Z,3.50
2018-03-18T11:12:14.335Z,3.60
2018-03-18T11:14:42.640Z,3.70
2018-03-18T11:17:10.932Z,3.20
2018-03-18T11:19:39.177Z,3.70
2018-03-18T11:22:07.461Z,3.80
2018-03-18T11:24:35.737Z,4.00
2018-03-18T11:27:04.036Z,3.90
2018-03-18T11:29:32.325Z,4.00
2018-03-18T11:32:01.410Z,4.10
2018-03-18T11:34:29.676Z,4.10
2018-03-18T11:36:57.946Z,4.10
2018-03-18T11:39:26.211Z,4.10
2018-03-18T11:41:54.531Z,4.30
2018-03-18T11:44:22.801Z,4.40
2018-03-18T11:46:51.118Z,4.40
2018-03-18T11:49:19.384Z,4.40
2018-03-18T11:51:47.707Z,4.20
2018-03-18T11:54:15.969Z,4.10
2018-03-18T11:56:44.267Z,4.10
2018-03-18T11:59:12.592Z,4.00
2018-03-18T12:01:40.864Z,4.00
2018-03-18T12:04:09.212Z,4.00
2018-03-18T12:06:37.513Z,4.00
2018-03-18T12:09:05.798Z,4.00
2018-03-18T12:11:34.084Z,3.90
2018-03-18T12:14:02.425Z,3.90
2018-03-18T12:16:31.504Z,4.00
2018-03-18T12:18:59.783Z,4.00
2018-03-18T12:21:28.179Z,4.10
2018-03-18T12:23:56.452Z,4.10
2018-03-18T12:26:24.708Z,4.00
2018-03-18T12:28:52.972Z,4.00
2018-03-18T12:31:21.237Z,4.00
2018-03-18T12:33:49.572Z,4.10
2018-03-18T12:36:17.792Z,4.10
2018-03-18T12:38:46.192Z,4.10
2018-03-18T12:41:14.447Z,4.00
2018-03-18T12:43:42.714Z,3.90
2018-03-18T12:46:10.997Z,3.60
2018-03-18T12:48:39.255Z,3.50
2018-03-18T12:51:07.527Z,3.50
2018-03-18T12:53:35.792Z,3.40
2018-03-18T12:56:04.075Z,3.40
2018-03-18T12:58:32.361Z,3.50
2018-03-18T13:01:00.628Z,3.70
2018-03-18T13:03:28.897Z,3.70
2018-03-18T13:05:57.201Z,3.50
2018-03-18T13:08:25.443Z,3.70
2018-03-18T13:10:53.739Z,3.80
2018-03-18T13:13:22.000Z,3.90
2018-03-18T13:15:50.281Z,3.80
2018-03-18T13:18:18.564Z,3.90
2018-03-18T13:20:46.856Z,4.00
2018-03-18T13:23:15.157Z,3.90
2018-03-18T13:25:43.486Z,3.90
2018-03-18T13:28:11.745Z,3.90
2018-03-18T13:30:40.796Z,3.70
2018-03-18T13:33:09.048Z,3.70
2018-03-18T13:35:37.327Z,3.60
2018-03-18T13:38:05.604Z,3.60
2018-03-18T13:40:33.868Z,3.70
2018-03-18T13:43:02.141Z,3.70
2018-03-18T13:45:30.407Z,3.70
2018-03-18T13:47:58.680Z,3.70
2018-03-18T13:50:26.991Z,3.70
2018-03-18T13:52:55.247Z,3.70
2018-03-18T13:55:23.528Z,3.80
2018-03-18T13:57:51.788Z,3.70
2018-03-18T14:00:20.850Z,3.70
2018-03-18T14:02:49.117Z,3.80
2018-03-18T14:05:17.416Z,3.80
2018-03-18T14:07:46.437Z,3.80
2018-03-18T14:10:14.726Z,3.80
2018-03-18T14:12:42.987Z,3.90
2018-03-18T14:15:11.260Z,3.70
2018-03-18T14:17:39.533Z,3.80
2018-03-18T14:20:07.827Z,3.80
2018-03-18T14:22:36.863Z,3.60
2018-03-18T14:25:05.135Z,3.60
2018-03-18T14:27:33.445Z,3.60
2018-03-18T14:30:01.800Z,3.60
2018-03-18T14:32:30.138Z,3.60
2018-03-18T14:34:59.221Z,3.50
2018-03-18T14:37:27.523Z,3.50
2018-03-18T14:39:55.787Z,3.50
2018-03-18T14:42:24.099Z,3.30
2018-03-18T14:44:52.355Z,3.30
2018-03-18T14:47:20.642Z,3.20
2018-03-18T14:49:48.905Z,3.30
2018-03-18T14:52:17.189Z,3.30
2018-03-18T14:54:45.448Z,3.30
2018-03-18T14:57:13.727Z,3.30
2018-03-18T14:59:41.998Z,3.30
2018-03-18T15:02:10.255Z,3.30
2018-03-18T15:04:38.878Z,3.30
2018-03-18T15:07:07.152Z,3.40
2018-03-18T15:09:35.424Z,3.40
2018-03-18T15:12:03.686Z,3.50
2018-03-18T15:14:31.966Z,3.40
2018-03-18T15:17:00.254Z,3.30
2018-03-18T15:19:28.585Z,3.20
2018-03-18T15:21:57.683Z,3.20
2018-03-18T15:24:26.705Z,3.30
2018-03-18T15:26:54.957Z,3.30
2018-03-18T15:29:23.232Z,3.30
2018-03-18T15:31:51.506Z,3.30
2018-03-18T15:34:19.791Z,3.30
2018-03-18T15:36:48.033Z,3.30
2018-03-18T15:39:17.134Z,3.30
2018-03-18T15:41:46.197Z,3.30
2018-03-18T15:44:14.466Z,3.30
2018-03-18T15:46:42.733Z,3.10
2018-03-18T15:49:11.032Z,3.20
2018-03-18T15:51:39.318Z,3.20
2018-03-18T15:54:07.643Z,3.10
2018-03-18T15:56:35.881Z,3.10
2018-03-18T15:59:05.002Z,3.00
2018-03-18T16:01:33.289Z,2.90
2018-03-18T16:04:01.529Z,3.00
2018-03-18T16:06:30.574Z,3.10
2018-03-18T16:08:58.838Z,3.10
2018-03-18T16:11:27.093Z,3.10
2018-03-18T16:13:55.408Z,3.10
2018-03-18T16:16:23.672Z,3.00
2018-03-18T16:18:51.937Z,3.10
2018-03-18T16:21:20.207Z,3.10
2018-03-18T16:23:48.515Z,3.10
2018-03-18T16:26:16.824Z,3.00
2018-03-18T16:28:45.119Z,2.90
2018-03-18T16:31:17.793Z,3.00
2018-03-18T16:33:46.044Z,2.90
2018-03-18T16:36:14.323Z,2.90
2018-03-18T16:38:42.610Z,3.00
2018-03-18T16:41:10.861Z,2.90
2018-03-18T16:43:39.134Z,2.90
2018-03-18T16:46:07.420Z,2.90
2018-03-18T16:48:35.680Z,2.90
2018-03-18T16:51:03.975Z,2.90
2018-03-18T16:53:32.240Z,2.80
2018-03-18T16:56:00.541Z,2.80
2018-03-18T16:58:28.968Z,2.80
2018-03-18T17:00:57.237Z,2.90
2018-03-18T17:03:25.623Z,2.90
2018-03-18T17:05:53.959Z,2.90
2018-03-18T17:08:22.396Z,2.90
2018-03-18T17:10:50.697Z,2.70
2018-03-18T17:13:19.002Z,2.70
2018-03-18T17:15:48.069Z,2.70
2018-03-18T17:18:16.423Z,2.70
2018-03-18T17:20:44.726Z,2.80
2018-03-18T17:23:12.998Z,2.70
2018-03-18T17:25:41.258Z,2.80
2018-03-18T17:28:09.520Z,2.80
2018-03-18T17:30:37.798Z,2.80
2018-03-18T17:33:06.097Z,2.70
2018-03-18T17:35:34.491Z,2.70
2018-03-18T17:38:02.757Z,2.70
2018-03-18T17:40:31.033Z,2.80
2018-03-18T17:43:03.279Z,2.80
2018-03-18T17:45:43.577Z,2.80
2018-03-18T17:48:23.717Z,2.70
2018-03-18T17:51:04.649Z,2.70
2018-03-18T17:53:44.706Z,2.60
2018-03-18T17:56:27.154Z,2.60
2018-03-18T17:58:55.616Z,2.50
2018-03-18T18:01:24.087Z,2.60
2018-03-18T18:03:53.220Z,2.50
2018-03-18T18:06:21.505Z,2.50
2018-03-18T18:08:49.826Z,2.50
2018-03-18T18:11:18.140Z,2.50
2018-03-18T18:13:46.620Z,2.40
2018-03-18T18:16:14.917Z,2.50
2018-03-18T18:18:43.246Z,2.60
2018-03-18T18:21:11.515Z,2.70
2018-03-18T18:23:39.863Z,2.60
2018-03-18T18:26:08.891Z,2.50
2018-03-18T18:28:37.180Z,2.50
2018-03-18T18:31:05.447Z,2.60
2018-03-18T18:33:33.714Z,2.50
2018-03-18T18:36:01.997Z,2.50
2018-03-18T18:38:30.285Z,2.50
2018-03-18T18:40:58.540Z,2.50
2018-03-18T18:43:26.847Z,2.50
2018-03-18T18:45:55.079Z,2.50
2018-03-18T18:48:23.372Z,2.70
2018-03-18T18:50:51.694Z,2.80
2018-03-18T18:53:19.988Z,2.70
2018-03-18T18:55:48.286Z,2.90
2018-03-18T18:58:16.653Z,3.00
2018-03-18T19:00:44.955Z,3.00
2018-03-18T19:03:13.379Z,3.10
2018-03-18T19:05:41.649Z,3.10
2018-03-18T19:08:09.929Z,3.20
2018-03-18T19:10:38.278Z,3.10
2018-03-18T19:13:06.561Z,3.10
2018-03-18T19:15:34.844Z,3.10
2018-03-18T19:18:03.100Z,2.90
2018-03-18T19:20:31.424Z,2.80
2018-03-18T19:22:59.719Z,2.80
2018-03-18T19:25:28.741Z,2.80
2018-03-18T19:27:57.048Z,2.80
2018-03-18T19:30:25.345Z,2.90
2018-03-18T19:32:53.625Z,2.90
2018-03-18T19:35:21.905Z,2.90
2018-03-18T19:37:50.179Z,2.80
2018-03-18T19:40:18.444Z,2.80
2018-03-18T19:42:47.486Z,2.90
2018-03-18T19:45:15.757Z,2.80
2018-03-18T19:47:44.836Z,2.80
2018-03-18T19:50:13.902Z,2.70
2018-03-18T19:52:42.231Z,2.70
2018-03-18T19:55:10.616Z,2.80
2018-03-18T19:57:38.881Z,2.90
2018-03-18T20:00:07.145Z,2.80
2018-03-18T20:02:36.204Z,2.90
2018-03-18T20:05:04.502Z,2.80
2018-03-18T20:07:36.835Z,2.90
2018-03-18T20:10:05.119Z,2.80
2018-03-18T20:12:33.388Z,2.60
2018-03-18T20:15:01.793Z,2.60
2018-03-18T20:17:30.150Z,2.50
2018-03-18T20:19:58.562Z,2.40
2018-03-18T20:22:26.831Z,2.40
2018-03-18T20:24:55.159Z,2.40
2018-03-18T20:27:23.582Z,2.40
2018-03-18T20:29:51.862Z,2.40
2018-03-18T20:32:20.261Z,2.50
2018-03-18T20:34:48.573Z,2.40
2018-03-18T20:37:16.889Z,2.20
2018-03-18T20:39:45.966Z,2.40
2018-03-18T20:42:14.268Z,2.40
2018-03-18T20:44:42.542Z,2.50
2018-03-18T20:47:10.825Z,2.30
2018-03-18T20:49:39.152Z,2.40
2018-03-18T20:52:07.478Z,2.50
2018-03-18T20:54:35.738Z,2.60
2018-03-18T20:57:04.012Z,2.70
2018-03-18T20:59:33.242Z,2.50
2018-03-18T21:02:02.322Z,2.50
2018-03-18T21:04:30.600Z,2.40
2018-03-18T21:06:58.884Z,2.40
2018-03-18T21:09:28.092Z,2.40
2018-03-18T21:11:57.221Z,2.50
2018-03-18T21:14:25.480Z,2.50
2018-03-18T21:16:53.776Z,2.50
2018-03-18T21:19:22.117Z,2.50
2018-03-18T21:21:51.408Z,2.50
2018-03-18T21:24:19.770Z,2.30
2018-03-18T21:26:48.054Z,2.40
2018-03-18T21:29:16.364Z,2.30
2018-03-18T21:31:44.651Z,2.20
2018-03-18T21:34:13.061Z,2.30
2018-03-18T21:36:41.342Z,2.40
2018-03-18T21:39:09.652Z,2.00
2018-03-18T21:41:37.928Z,2.10
2018-03-18T21:44:06.236Z,2.20
2018-03-18T21:46:34.491Z,2.10
2018-03-18T21:49:02.755Z,2.20
2018-03-18T21:51:31.929Z,2.20
2018-03-18T21:54:00.362Z,2.20
2018-03-18T21:56:28.669Z,2.20
2018-03-18T21:58:57.762Z,2.20
2018-03-18T22:01:28.137Z,2.10
2018-03-18T22:03:56.420Z,2.10
2018-03-18T22:06:27.240Z,2.10
2018-03-18T22:08:56.662Z,2.10
2018-03-18T22:11:24.959Z,2.10
2018-03-18T22:13:54.318Z,2.00
2018-03-18T22:16:23.571Z,2.10
2018-03-18T22:18:53.314Z,2.20
2018-03-18T22:21:21.584Z,2.10
2018-03-18T22:23:51.817Z,2.10
2018-03-18T22:26:20.064Z,2.10
2018-03-18T22:28:48.374Z,2.00
2018-03-18T22:31:16.625Z,2.00
2018-03-18T22:33:44.902Z,2.00
2018-03-18T22:36:13.191Z,2.00
2018-03-18T22:38:42.495Z,2.00
2018-03-18T22:41:10.832Z,1.90
2018-03-18T22:43:39.930Z,1.90
2018-03-18T22:46:08.189Z,2.00
2018-03-18T22:48:36.508Z,2.10
2018-03-18T22:51:04.834Z,2.10
2018-03-18T22:53:33.968Z,2.20
2018-03-18T22:56:02.282Z,2.20
2018-03-18T22:58:30.563Z,2.10
2018-03-18T23:00:58.893Z,2.00
2018-03-18T23:03:27.280Z,2.20
2018-03-18T23:05:56.692Z,2.10
2018-03-18T23:08:25.060Z,2.20
2018-03-18T23:10:53.758Z,2.20
2018-03-18T23:13:22.066Z,2.20
2018-03-18T23:15:50.350Z,2.20
2018-03-18T23:18:19.413Z,2.20
2018-03-18T23:20:47.659Z,2.20
2018-03-18T23:23:15.973Z,2.20
2018-03-18T23:25:44.235Z,2.20
2018-03-18T23:28:12.556Z,2.20
2018-03-18T23:30:43.436Z,2.20
2018-03-18T23:33:13.590Z,2.10
2018-03-18T23:35:41.860Z,2.10
2018-03-18T23:38:10.134Z,2.20
2018-03-18T23:40:38.401Z,2.10
2018-03-18T23:43:08.522Z,2.10
2018-03-18T23:45:36.799Z,2.10
2018-03-18T23:48:07.017Z,2.20
2018-03-18T23:50:53.880Z,2.20
2018-03-18T23:53:22.922Z,2.20
2018-03-18T23:55:56.401Z,2.10
2018-03-18T23:58:25.590Z,2.10
